sensor_id;sensor_type;location;lat;lon;timestamp;pressure;altitude;pressure_sealevel;temperature;humidity
55077;BME280;40971;44.702;11.030;2023-02-28T00:02:46;102042.75;;;2.58;75.57
55077;BME280;40971;44.702;11.030;2023-02-28T00:12:51;102038.56;;;2.71;74.71
55077;BME280;40971;44.702;11.030;2023-02-28T00:22:53;102038.09;;;2.80;74.83
55077;BME280;40971;44.702;11.030;2023-02-28T00:32:54;102054.69;;;2.78;76.25
55077;BME280;40971;44.702;11.030;2023-02-28T00:42:55;102057.34;;;2.76;76.31
55077;BME280;40971;44.702;11.030;2023-02-28T00:52:57;102044.28;;;2.78;75.20
55077;BME280;40971;44.702;11.030;2023-02-28T01:02:58;102063.75;;;2.86;73.91
55077;BME280;40971;44.702;11.030;2023-02-28T01:12:59;102059.91;;;2.93;73.38
55077;BME280;40971;44.702;11.030;2023-02-28T01:23:00;102064.94;;;2.97;71.82
55077;BME280;40971;44.702;11.030;2023-02-28T01:33:01;102047.53;;;2.99;71.83
55077;BME280;40971;44.702;11.030;2023-02-28T01:43:02;102051.94;;;2.97;70.83
55077;BME280;40971;44.702;11.030;2023-02-28T01:53:07;102060.31;;;3.02;69.15
55077;BME280;40971;44.702;11.030;2023-02-28T02:03:13;102067.13;;;3.04;68.88
55077;BME280;40971;44.702;11.030;2023-02-28T02:44:56;102051.34;;;2.91;72.09
55077;BME280;40971;44.702;11.030;2023-02-28T02:55:00;102046.78;;;2.79;71.54
55077;BME280;40971;44.702;11.030;2023-02-28T03:05:08;102056.69;;;2.73;73.90
55077;BME280;40971;44.702;11.030;2023-02-28T03:15:24;102044.97;;;2.81;72.22
55077;BME280;40971;44.702;11.030;2023-02-28T03:36:04;102056.22;;;2.82;72.67
55077;BME280;40971;44.702;11.030;2023-02-28T03:46:09;102066.47;;;3.16;74.28
55077;BME280;40971;44.702;11.030;2023-02-28T03:56:17;102068.63;;;3.08;74.94
55077;BME280;40971;44.702;11.030;2023-02-28T04:06:21;102070.31;;;3.09;73.93
55077;BME280;40971;44.702;11.030;2023-02-28T04:16:22;102073.97;;;2.89;73.62
55077;BME280;40971;44.702;11.030;2023-02-28T04:26:23;102073.81;;;2.92;72.61
55077;BME280;40971;44.702;11.030;2023-02-28T04:36:25;102081.63;;;2.92;73.83
55077;BME280;40971;44.702;11.030;2023-02-28T04:46:27;102074.00;;;3.05;70.77
55077;BME280;40971;44.702;11.030;2023-02-28T04:56:28;102083.69;;;3.02;68.81
55077;BME280;40971;44.702;11.030;2023-02-28T05:06:31;102095.47;;;3.09;69.82
55077;BME280;40971;44.702;11.030;2023-02-28T05:16:33;102099.81;;;3.08;70.17
55077;BME280;40971;44.702;11.030;2023-02-28T05:26:40;102110.47;;;3.04;71.43
55077;BME280;40971;44.702;11.030;2023-02-28T05:36:44;102101.13;;;3.00;70.48
55077;BME280;40971;44.702;11.030;2023-02-28T05:46:47;102103.72;;;3.00;70.63
55077;BME280;40971;44.702;11.030;2023-02-28T05:56:48;102110.53;;;3.02;70.83
55077;BME280;40971;44.702;11.030;2023-02-28T06:06:50;102114.13;;;3.00;71.00
55077;BME280;40971;44.702;11.030;2023-02-28T06:16:51;102124.50;;;3.00;68.18
55077;BME280;40971;44.702;11.030;2023-02-28T06:26:52;102137.19;;;3.06;67.41
55077;BME280;40971;44.702;11.030;2023-02-28T06:36:54;102145.56;;;3.11;66.46
55077;BME280;40971;44.702;11.030;2023-02-28T06:46:55;102160.69;;;3.20;66.21
55077;BME280;40971;44.702;11.030;2023-02-28T06:56:57;102157.84;;;3.24;65.91
55077;BME280;40971;44.702;11.030;2023-02-28T07:06:59;102166.47;;;3.25;66.47
55077;BME280;40971;44.702;11.030;2023-02-28T07:17:03;102168.13;;;3.43;66.43
55077;BME280;40971;44.702;11.030;2023-02-28T07:27:04;102172.16;;;3.64;69.15
55077;BME280;40971;44.702;11.030;2023-02-28T07:37:06;102185.56;;;3.72;65.93
55077;BME280;40971;44.702;11.030;2023-02-28T07:47:08;102191.97;;;3.82;66.13
55077;BME280;40971;44.702;11.030;2023-02-28T07:57:12;102192.28;;;3.92;64.47
55077;BME280;40971;44.702;11.030;2023-02-28T08:07:14;102199.41;;;3.88;63.72
55077;BME280;40971;44.702;11.030;2023-02-28T08:17:18;102207.13;;;4.21;64.44
55077;BME280;40971;44.702;11.030;2023-02-28T08:27:19;102210.34;;;4.56;62.64
55077;BME280;40971;44.702;11.030;2023-02-28T08:37:21;102224.75;;;4.77;61.60
55077;BME280;40971;44.702;11.030;2023-02-28T08:47:23;102210.66;;;5.09;61.74
55077;BME280;40971;44.702;11.030;2023-02-28T08:57:25;102221.38;;;5.19;63.74
55077;BME280;40971;44.702;11.030;2023-02-28T09:07:29;102221.47;;;5.46;60.09
55077;BME280;40971;44.702;11.030;2023-02-28T09:17:30;102214.75;;;5.56;61.61
55077;BME280;40971;44.702;11.030;2023-02-28T09:27:34;102219.50;;;5.92;57.98
55077;BME280;40971;44.702;11.030;2023-02-28T09:37:35;102222.94;;;5.92;61.30
55077;BME280;40971;44.702;11.030;2023-02-28T09:47:41;102223.22;;;6.28;57.85
55077;BME280;40971;44.702;11.030;2023-02-28T09:57:45;102227.66;;;6.14;57.53
55077;BME280;40971;44.702;11.030;2023-02-28T10:18:08;102218.63;;;6.59;57.72
55077;BME280;40971;44.702;11.030;2023-02-28T10:28:14;102219.72;;;6.94;58.36
55077;BME280;40971;44.702;11.030;2023-02-28T10:38:24;102214.28;;;7.10;56.99
55077;BME280;40971;44.702;11.030;2023-02-28T10:48:40;102218.50;;;7.25;54.98
55077;BME280;40971;44.702;11.030;2023-02-28T11:19:29;102201.13;;;7.24;56.67
55077;BME280;40971;44.702;11.030;2023-02-28T11:29:33;102174.22;;;7.34;57.52
55077;BME280;40971;44.702;11.030;2023-02-28T11:39:36;102167.84;;;7.38;53.77
55077;BME280;40971;44.702;11.030;2023-02-28T11:50:59;102171.16;;;7.53;54.11
55077;BME280;40971;44.702;11.030;2023-02-28T12:21:14;102126.50;;;8.62;50.60
55077;BME280;40971;44.702;11.030;2023-02-28T12:31:24;102119.50;;;9.18;52.09
55077;BME280;40971;44.702;11.030;2023-02-28T12:51:44;102088.00;;;9.40;50.88
55077;BME280;40971;44.702;11.030;2023-02-28T13:12:28;102059.41;;;9.15;51.30
55077;BME280;40971;44.702;11.030;2023-02-28T13:32:36;102035.66;;;10.02;49.53
55077;BME280;40971;44.702;11.030;2023-02-28T14:44:23;101988.63;;;8.70;56.14
55077;BME280;40971;44.702;11.030;2023-02-28T14:54:25;101977.78;;;8.42;61.04
55077;BME280;40971;44.702;11.030;2023-02-28T15:04:29;101981.16;;;8.09;64.89
55077;BME280;40971;44.702;11.030;2023-02-28T15:14:34;101977.75;;;7.85;65.32
55077;BME280;40971;44.702;11.030;2023-02-28T15:24:49;101966.34;;;7.86;64.69
55077;BME280;40971;44.702;11.030;2023-02-28T15:34:53;101965.69;;;7.36;66.10
55077;BME280;40971;44.702;11.030;2023-02-28T15:44:55;101957.72;;;7.38;66.50
55077;BME280;40971;44.702;11.030;2023-02-28T15:54:59;101951.81;;;7.23;66.49
55077;BME280;40971;44.702;11.030;2023-02-28T16:15:20;101941.59;;;6.96;67.74
55077;BME280;40971;44.702;11.030;2023-02-28T16:25:38;101930.78;;;6.77;67.69
55077;BME280;40971;44.702;11.030;2023-02-28T16:35:41;101936.78;;;6.54;69.88
55077;BME280;40971;44.702;11.030;2023-02-28T16:45:42;101941.53;;;6.36;69.52
55077;BME280;40971;44.702;11.030;2023-02-28T16:55:46;101953.00;;;5.96;70.75
55077;BME280;40971;44.702;11.030;2023-02-28T17:05:50;101947.09;;;5.80;72.31
55077;BME280;40971;44.702;11.030;2023-02-28T17:15:52;101967.84;;;5.69;71.42
55077;BME280;40971;44.702;11.030;2023-02-28T17:25:54;101969.38;;;5.59;71.05
55077;BME280;40971;44.702;11.030;2023-02-28T17:35:55;101980.63;;;5.47;72.32
55077;BME280;40971;44.702;11.030;2023-02-28T17:45:58;101990.59;;;5.40;72.52
55077;BME280;40971;44.702;11.030;2023-02-28T17:56:01;101986.06;;;4.89;75.95
55077;BME280;40971;44.702;11.030;2023-02-28T18:06:05;101989.16;;;4.67;76.67
55077;BME280;40971;44.702;11.030;2023-02-28T18:16:07;101998.94;;;4.63;76.90
55077;BME280;40971;44.702;11.030;2023-02-28T18:26:09;101982.84;;;4.85;75.05
55077;BME280;40971;44.702;11.030;2023-02-28T18:36:14;101983.56;;;4.87;74.10
55077;BME280;40971;44.702;11.030;2023-02-28T18:46:18;101973.03;;;4.89;74.67
55077;BME280;40971;44.702;11.030;2023-02-28T18:56:23;101982.47;;;4.91;75.45
55077;BME280;40971;44.702;11.030;2023-02-28T19:06:26;101966.25;;;4.86;74.86
55077;BME280;40971;44.702;11.030;2023-02-28T19:16:30;101969.16;;;4.82;75.65
55077;BME280;40971;44.702;11.030;2023-02-28T19:26:32;101971.28;;;4.75;75.52
55077;BME280;40971;44.702;11.030;2023-02-28T19:36:36;101957.91;;;4.67;75.04
55077;BME280;40971;44.702;11.030;2023-02-28T19:46:38;101965.75;;;4.53;76.72
55077;BME280;40971;44.702;11.030;2023-02-28T19:56:40;101965.00;;;4.37;75.32
55077;BME280;40971;44.702;11.030;2023-02-28T20:06:45;101978.38;;;4.17;74.27
55077;BME280;40971;44.702;11.030;2023-02-28T20:16:48;101998.81;;;4.08;74.52
55077;BME280;40971;44.702;11.030;2023-02-28T20:26:52;101989.25;;;4.09;79.17
55077;BME280;40971;44.702;11.030;2023-02-28T20:36:54;101970.41;;;3.76;75.98
55077;BME280;40971;44.702;11.030;2023-02-28T20:46:58;101960.50;;;3.37;76.29
55077;BME280;40971;44.702;11.030;2023-02-28T20:57:01;101969.94;;;3.24;77.17
55077;BME280;40971;44.702;11.030;2023-02-28T21:07:03;101973.78;;;3.62;80.29
55077;BME280;40971;44.702;11.030;2023-02-28T21:17:05;101960.53;;;3.06;77.90
55077;BME280;40971;44.702;11.030;2023-02-28T21:27:09;101979.63;;;3.05;78.12
55077;BME280;40971;44.702;11.030;2023-02-28T21:37:13;101967.44;;;3.07;78.69
55077;BME280;40971;44.702;11.030;2023-02-28T21:47:15;101972.25;;;3.13;78.80
55077;BME280;40971;44.702;11.030;2023-02-28T21:57:19;101964.41;;;3.14;78.28
55077;BME280;40971;44.702;11.030;2023-02-28T22:07:21;101977.13;;;3.19;79.31
55077;BME280;40971;44.702;11.030;2023-02-28T22:17:23;101973.84;;;3.31;79.66
55077;BME280;40971;44.702;11.030;2023-02-28T22:27:25;101980.69;;;3.77;77.94
55077;BME280;40971;44.702;11.030;2023-02-28T22:37:27;101973.94;;;4.19;73.58
55077;BME280;40971;44.702;11.030;2023-02-28T22:47:28;101960.53;;;4.25;72.81
55077;BME280;40971;44.702;11.030;2023-02-28T22:57:32;101947.31;;;4.28;70.68
55077;BME280;40971;44.702;11.030;2023-02-28T23:07:33;101951.50;;;4.16;72.57
55077;BME280;40971;44.702;11.030;2023-02-28T23:17:34;101949.75;;;4.17;73.22
55077;BME280;40971;44.702;11.030;2023-02-28T23:27:38;101937.66;;;4.01;71.91
55077;BME280;40971;44.702;11.030;2023-02-28T23:37:40;101944.34;;;4.05;69.74
55077;BME280;40971;44.702;11.030;2023-02-28T23:47:41;101930.94;;;3.97;70.13
55077;BME280;40971;44.702;11.030;2023-02-28T23:57:42;101920.28;;;3.88;72.21
